Time;durP1;ratioP1;P1;durP2;ratioP2;P2;SDS_P1;SDS_P2;PMS_P1;PMS_P2;Temp;Humidity;BMP_temperature;BMP_pressure;BME280_temperature;BME280_humidity;BME280_pressure;Samples;Min_cycle;Max_cycle;Signal;HPM_P1;HPM_P2
2022/09/03 00:00:29;;;;;;;3.72;1.00;;;17.20;75.00;;;;;;5091412;27;20085;-82
2022/09/03 00:03:15;;;;;;;2.03;0.65;;;17.20;75.10;;;;;;5106128;27;20126;-83
2022/09/03 00:05:47;;;;;;;2.22;0.80;;;17.20;75.10;;;;;;5095863;27;20047;-82
2022/09/03 00:08:21;;;;;;;1.35;0.90;;;17.10;75.20;;;;;;5095308;28;20603;-82
2022/09/03 00:11:02;;;;;;;4.20;0.88;;;17.20;75.50;;;;;;5109818;27;20612;-83
2022/09/03 00:13:36;;;;;;;;;;;17.10;75.30;;;;;;5089450;27;20054;-83
2022/09/03 00:16:09;;;;;;;2.55;0.90;;;17.10;75.30;;;;;;5097340;27;20731;-84
2022/09/03 00:18:41;;;;;;;1.55;0.68;;;17.00;75.50;;;;;;5106682;27;20062;-82
2022/09/03 00:21:29;;;;;;;2.67;1.00;;;17.00;75.50;;;;;;5111745;27;20039;-82
2022/09/03 00:23:58;;;;;;;4.10;0.80;;;17.00;75.80;;;;;;5092953;28;20040;-89
2022/09/03 00:26:32;;;;;;;2.83;0.90;;;16.90;76.10;;;;;;5101951;27;20126;-85
2022/09/03 00:29:20;;;;;;;1.73;0.80;;;16.90;76.10;;;;;;5100814;27;20039;-88
2022/09/03 00:31:51;;;;;;;2.25;0.80;;;16.90;76.00;;;;;;5096467;28;20071;-91
2022/09/03 00:34:30;;;;;;;4.07;0.82;;;16.90;76.50;;;;;;5090222;28;20078;-87
2022/09/03 00:36:56;;;;;;;3.25;0.90;;;16.90;77.00;;;;;;5093979;27;20038;-88
2022/09/03 00:39:24;;;;;;;3.72;0.82;;;16.80;77.10;;;;;;5100085;27;20579;-85
2022/09/03 00:42:12;;;;;;;3.40;0.70;;;16.80;77.20;;;;;;5097431;27;20046;-85
2022/09/03 00:44:44;;;;;;;3.08;0.82;;;16.70;77.40;;;;;;5098189;27;20044;-89
2022/09/03 00:47:17;;;;;;;4.32;0.88;;;16.70;77.70;;;;;;5114254;27;20767;-90
2022/09/03 00:50:11;;;;;;;2.35;0.90;;;16.70;78.10;;;;;;5095104;27;20683;-88
2022/09/03 00:52:57;;;;;;;2.65;0.70;;;16.60;78.10;;;;;;5101795;27;20061;-86
2022/09/03 00:55:57;;;;;;;3.28;0.80;;;16.60;78.30;;;;;;5104010;27;20160;-86
2022/09/03 00:58:38;;;;;;;2.53;0.75;;;16.60;78.50;;;;;;5096742;28;20039;-88
2022/09/03 01:01:19;;;;;;;4.00;0.85;;;16.60;78.40;;;;;;5086855;27;20058;-88
2022/09/03 01:04:05;;;;;;;2.30;0.80;;;16.60;78.60;;;;;;5098958;27;20054;-87
2022/09/03 01:06:37;;;;;;;2.22;0.70;;;16.60;79.00;;;;;;5094141;28;20393;-88
2022/09/03 01:09:27;;;;;;;3.15;0.70;;;16.60;79.20;;;;;;5111335;27;20840;-86
2022/09/03 01:11:58;;;;;;;;;;;16.60;79.40;;;;;;5099311;27;20468;-85
2022/09/03 01:14:58;;;;;;;3.20;0.68;;;16.50;79.30;;;;;;5090206;27;20323;-88
2022/09/03 01:17:27;;;;;;;1.98;0.75;;;16.50;80.10;;;;;;5093899;28;20051;-87
2022/09/03 01:20:24;;;;;;;2.92;0.70;;;16.40;80.00;;;;;;5091198;27;20050;-87
2022/09/03 01:23:20;;;;;;;7.13;1.00;;;16.40;80.00;;;;;;5096747;27;20064;-89
2022/09/03 01:25:53;;;;;;;1.65;0.73;;;16.40;80.20;;;;;;5096469;27;20054;-89
2022/09/03 01:28:41;;;;;;;4.25;1.00;;;16.40;81.00;;;;;;5099573;28;20785;-90
2022/09/03 01:31:25;;;;;;;2.85;0.80;;;16.40;80.30;;;;;;5095684;28;20062;-83
2022/09/03 01:34:19;;;;;;;1.13;0.63;;;16.40;80.50;;;;;;5096170;27;20910;-83
2022/09/03 01:37:20;;;;;;;1.95;0.70;;;16.40;80.20;;;;;;5090095;28;20309;-82
2022/09/03 01:39:54;;;;;;;1.65;0.63;;;16.40;80.50;;;;;;5096399;28;20105;-82
2022/09/03 01:42:20;;;;;;;3.72;0.80;;;16.40;80.70;;;;;;5110177;28;21512;-83
2022/09/03 01:45:10;;;;;;;4.97;0.77;;;16.40;80.60;;;;;;5108350;28;20044;-83
2022/09/03 01:47:50;;;;;;;;;;;16.40;80.30;;;;;;5093113;28;20043;-82
2022/09/03 01:50:56;;;;;;;4.85;0.90;;;16.40;80.30;;;;;;5109790;28;19923;-83
2022/09/03 01:53:56;;;;;;;4.15;0.80;;;16.40;80.70;;;;;;5087241;28;20040;-82
2022/09/03 01:56:41;;;;;;;;;;;16.40;80.40;;;;;;5091616;28;20535;-83
2022/09/03 01:59:18;;;;;;;3.17;0.70;;;16.40;80.30;;;;;;5082805;28;19987;-83
2022/09/03 02:02:01;;;;;;;2.40;0.68;;;16.40;80.10;;;;;;5110656;28;20065;-82
2022/09/03 02:04:27;;;;;;;3.22;0.80;;;16.40;80.50;;;;;;5112367;28;20039;-84
2022/09/03 02:06:56;;;;;;;2.22;0.70;;;16.40;80.40;;;;;;5095693;28;20568;-82
2022/09/03 02:09:23;;;;;;;1.63;0.70;;;16.50;80.40;;;;;;5094646;28;20040;-83
2022/09/03 02:12:07;;;;;;;1.75;0.75;;;16.50;80.80;;;;;;5110193;28;20103;-83
2022/09/03 02:14:34;;;;;;;2.47;0.73;;;16.50;81.10;;;;;;5096892;28;20059;-85
2022/09/03 02:17:02;;;;;;;2.50;0.90;;;16.40;81.00;;;;;;5083097;28;20050;-82
2022/09/03 02:19:28;;;;;;;4.40;0.80;;;16.40;80.80;;;;;;5100736;27;20035;-83
2022/09/03 02:21:56;;;;;;;4.03;0.65;;;16.40;80.90;;;;;;5078287;27;20129;-87
2022/09/03 02:24:23;;;;;;;4.43;0.80;;;16.40;80.90;;;;;;5095747;27;20691;-84
2022/09/03 02:26:49;;;;;;;2.58;0.60;;;16.40;81.20;;;;;;5097909;27;20050;-85
2022/09/03 02:29:16;;;;;;;1.88;0.60;;;16.40;81.20;;;;;;5103422;27;20047;-87
2022/09/03 02:31:43;;;;;;;3.25;0.70;;;16.40;81.30;;;;;;5102527;28;20055;-88
2022/09/03 02:34:09;;;;;;;2.00;0.90;;;16.30;81.80;;;;;;5124237;27;20149;-86
2022/09/03 02:36:40;;;;;;;2.22;0.50;;;16.30;81.90;;;;;;5102218;27;20417;-87
2022/09/03 02:39:09;;;;;;;2.70;0.52;;;16.30;82.20;;;;;;5105058;27;20048;-87
2022/09/03 02:41:38;;;;;;;6.13;1.00;;;16.30;82.20;;;;;;5101090;27;20121;-84
2022/09/03 02:44:12;;;;;;;2.78;0.63;;;16.30;82.40;;;;;;5083379;27;20058;-89
2022/09/03 02:46:43;;;;;;;2.28;0.80;;;16.30;82.30;;;;;;5105752;27;20054;-86
2022/09/03 02:49:10;;;;;;;2.33;0.70;;;16.30;82.20;;;;;;5107421;27;20387;-86
2022/09/03 02:51:39;;;;;;;1.38;0.60;;;16.30;82.50;;;;;;5107489;27;20170;-86
2022/09/03 02:54:09;;;;;;;1.43;0.70;;;16.30;82.30;;;;;;5100292;27;20035;-87
2022/09/03 02:56:35;;;;;;;;;;;16.40;82.50;;;;;;5118378;27;20284;-87
2022/09/03 02:59:03;;;;;;;2.70;0.80;;;16.40;82.60;;;;;;5089827;27;19934;-87
2022/09/03 03:01:29;;;;;;;1.98;0.90;;;16.30;82.90;;;;;;5101937;27;20099;-84
2022/09/03 03:03:55;;;;;;;2.38;0.60;;;16.30;82.90;;;;;;5128815;27;20074;-88
2022/09/03 03:06:21;;;;;;;1.75;0.80;;;16.40;82.80;;;;;;5102948;27;20103;-85
2022/09/03 03:08:51;;;;;;;3.60;0.85;;;16.40;83.00;;;;;;5123596;27;20125;-85
2022/09/03 03:11:18;;;;;;;3.00;0.60;;;16.30;83.00;;;;;;5099630;27;20036;-88
2022/09/03 03:13:45;;;;;;;2.40;0.70;;;16.30;83.20;;;;;;5103673;27;20027;-89
2022/09/03 03:16:12;;;;;;;2.00;0.70;;;16.30;83.00;;;;;;5105287;27;20049;-89
2022/09/03 03:18:38;;;;;;;1.92;0.60;;;16.30;83.30;;;;;;5107323;27;20043;-90
2022/09/03 03:21:10;;;;;;;2.35;0.73;;;16.40;83.30;;;;;;5115073;27;20046;-84
2022/09/03 03:23:39;;;;;;;2.33;0.90;;;16.30;83.30;;;;;;5121298;27;20050;-86
2022/09/03 03:26:08;;;;;;;3.70;0.90;;;16.30;83.60;;;;;;5105967;27;20162;-86
2022/09/03 03:28:37;;;;;;;3.45;0.70;;;16.30;83.50;;;;;;5121353;27;20557;-86
2022/09/03 03:31:08;;;;;;;3.00;1.00;;;16.30;83.60;;;;;;5107111;27;20039;-85
2022/09/03 03:33:38;;;;;;;2.38;0.60;;;16.30;84.10;;;;;;5117700;27;20526;-85
2022/09/03 03:36:10;;;;;;;2.53;0.70;;;16.20;84.70;;;;;;5114352;27;20039;-86
2022/09/03 03:38:39;;;;;;;3.95;0.63;;;16.20;84.70;;;;;;5107424;27;20125;-85
2022/09/03 03:41:14;;;;;;;2.40;0.85;;;16.20;84.60;;;;;;5126157;27;20034;-83
2022/09/03 03:43:40;;;;;;;2.03;0.75;;;16.10;84.80;;;;;;5093463;27;20134;-86
2022/09/03 03:46:07;;;;;;;1.42;0.63;;;16.10;85.10;;;;;;5086436;27;20059;-87
2022/09/03 03:48:33;;;;;;;1.98;0.70;;;16.10;85.10;;;;;;5099203;27;20058;-86
2022/09/03 03:51:05;;;;;;;3.65;0.82;;;16.10;85.20;;;;;;5089059;27;20043;-87
2022/09/03 03:53:36;;;;;;;2.25;1.13;;;16.10;85.00;;;;;;5107225;27;20110;-85
2022/09/03 03:56:09;;;;;;;2.17;0.80;;;16.10;85.40;;;;;;5114416;27;20047;-84
2022/09/03 03:58:42;;;;;;;3.38;0.95;;;16.00;86.10;;;;;;5103029;27;20062;-87
2022/09/03 04:01:14;;;;;;;2.72;0.70;;;16.00;86.20;;;;;;5121955;27;20039;-87
2022/09/03 04:03:41;;;;;;;2.90;0.77;;;16.00;85.80;;;;;;5129696;27;20039;-88
2022/09/03 04:06:12;;;;;;;3.00;0.80;;;16.00;86.10;;;;;;5091777;27;20047;-85
2022/09/03 04:08:40;;;;;;;2.20;1.05;;;16.00;86.10;;;;;;5113317;27;20540;-90
2022/09/03 04:11:09;;;;;;;2.05;0.82;;;16.00;86.40;;;;;;5101994;27;20080;-85
2022/09/03 04:13:41;;;;;;;2.20;0.90;;;16.00;86.10;;;;;;5101630;27;20098;-86
2022/09/03 04:16:16;;;;;;;1.30;0.73;;;16.00;86.50;;;;;;5105161;27;20053;-84
2022/09/03 04:18:42;;;;;;;2.22;0.80;;;16.00;86.70;;;;;;5125480;27;20045;-86
2022/09/03 04:21:09;;;;;;;2.55;0.88;;;16.00;87.00;;;;;;5087139;27;20034;-85
2022/09/03 04:23:37;;;;;;;5.15;1.10;;;15.90;87.20;;;;;;5110344;27;20060;-83
2022/09/03 04:26:04;;;;;;;4.45;0.95;;;15.90;87.20;;;;;;5102480;27;20039;-83
2022/09/03 04:28:31;;;;;;;3.80;0.82;;;15.90;87.50;;;;;;5101333;27;20069;-88
2022/09/03 04:31:02;;;;;;;2.05;0.73;;;15.90;87.90;;;;;;5087123;27;20073;-86
2022/09/03 04:33:29;;;;;;;5.53;1.30;;;15.80;88.00;;;;;;5120967;27;20031;-85
2022/09/03 04:36:10;;;;;;;3.60;1.13;;;15.80;88.30;;;;;;5109996;27;20405;-86
2022/09/03 04:38:41;;;;;;;3.50;1.20;;;15.80;88.40;;;;;;5108968;27;20046;-83
2022/09/03 04:41:10;;;;;;;3.92;0.90;;;15.80;88.50;;;;;;5068565;27;20511;-86
2022/09/03 04:43:36;;;;;;;2.17;0.80;;;15.80;88.80;;;;;;5119690;27;20042;-82
2022/09/03 04:46:10;;;;;;;3.10;1.13;;;15.70;89.30;;;;;;5105423;27;20066;-85
2022/09/03 04:48:39;;;;;;;2.70;0.80;;;15.70;89.50;;;;;;5095705;27;20138;-84
2022/09/03 04:51:13;;;;;;;2.63;0.80;;;15.70;89.60;;;;;;5100731;27;20039;-85
2022/09/03 04:53:47;;;;;;;2.22;0.82;;;15.70;90.00;;;;;;5126930;27;20062;-85
2022/09/03 04:56:18;;;;;;;3.10;1.00;;;15.70;90.10;;;;;;5078017;27;20374;-85
2022/09/03 04:58:46;;;;;;;2.33;1.10;;;15.60;90.20;;;;;;5120356;27;20046;-87
2022/09/03 05:01:20;;;;;;;2.15;1.00;;;15.70;90.50;;;;;;5100049;27;20092;-84
2022/09/03 05:03:47;;;;;;;2.20;1.15;;;15.60;90.60;;;;;;5103480;27;20039;-84
2022/09/03 05:06:15;;;;;;;3.47;0.82;;;15.60;90.60;;;;;;5118450;27;20042;-84
2022/09/03 05:08:43;;;;;;;2.58;1.10;;;15.60;90.60;;;;;;5100321;27;20438;-86
2022/09/03 05:11:09;;;;;;;2.30;0.70;;;15.60;90.80;;;;;;5106430;27;20078;-84
2022/09/03 05:13:44;;;;;;;1.77;0.95;;;15.50;90.90;;;;;;5098355;27;20038;-87
2022/09/03 05:16:12;;;;;;;1.60;0.80;;;15.50;91.00;;;;;;5102742;27;20043;-87
2022/09/03 05:18:38;;;;;;;2.83;0.93;;;15.50;91.40;;;;;;5108100;27;20051;-85
2022/09/03 05:21:09;;;;;;;3.17;1.00;;;15.40;91.80;;;;;;5080140;27;20039;-88
2022/09/03 05:23:38;;;;;;;3.38;1.20;;;15.40;91.80;;;;;;5102188;27;20135;-85
2022/09/03 05:26:09;;;;;;;2.45;0.85;;;15.40;91.80;;;;;;5095477;27;20051;-84
2022/09/03 05:28:37;;;;;;;2.30;1.00;;;15.40;92.00;;;;;;5100936;27;20621;-85
2022/09/03 05:31:06;;;;;;;2.35;0.90;;;15.40;92.00;;;;;;5103077;27;20532;-86
2022/09/03 05:33:37;;;;;;;2.00;1.15;;;15.40;92.30;;;;;;5111566;27;20816;-85
2022/09/03 05:36:05;;;;;;;2.92;1.20;;;15.40;92.30;;;;;;5099495;27;20074;-84
2022/09/03 05:38:34;;;;;;;1.70;0.90;;;15.40;92.50;;;;;;5104646;27;20394;-85
2022/09/03 05:41:04;;;;;;;3.05;1.23;;;15.40;92.90;;;;;;5116352;27;20039;-83
2022/09/03 05:43:30;;;;;;;4.50;1.52;;;15.50;92.90;;;;;;5115807;27;20112;-86
2022/09/03 05:46:01;;;;;;;3.20;1.17;;;15.40;92.90;;;;;;5103185;27;20111;-86
2022/09/03 05:48:32;;;;;;;1.65;1.10;;;15.40;93.00;;;;;;5079940;27;20067;-84
2022/09/03 05:51:02;;;;;;;2.83;1.20;;;15.40;92.90;;;;;;5097827;27;20082;-84
2022/09/03 05:53:29;;;;;;;5.13;1.40;;;15.40;93.40;;;;;;5114735;27;20092;-85
2022/09/03 05:56:00;;;;;;;2.85;1.30;;;15.40;93.50;;;;;;5125552;27;20087;-86
2022/09/03 05:58:34;;;;;;;2.35;1.08;;;15.40;93.40;;;;;;5103005;27;20049;-83
2022/09/03 06:01:19;;;;;;;2.70;1.42;;;15.40;93.60;;;;;;5104352;27;20066;-86
2022/09/03 06:03:47;;;;;;;2.97;1.23;;;15.30;93.80;;;;;;5115017;27;20529;-84
2022/09/03 06:06:14;;;;;;;3.47;1.30;;;15.30;94.00;;;;;;5108560;27;20065;-85
2022/09/03 06:08:41;;;;;;;3.78;1.30;;;15.30;94.30;;;;;;5083687;27;20043;-85
2022/09/03 06:11:07;;;;;;;4.72;1.40;;;15.40;94.40;;;;;;5092328;27;20580;-86
2022/09/03 06:13:34;;;;;;;4.10;1.33;;;15.40;94.40;;;;;;5112970;27;20038;-86
2022/09/03 06:16:02;;;;;;;5.10;1.40;;;15.40;94.60;;;;;;5115631;27;20060;-88
2022/09/03 06:18:29;;;;;;;2.45;1.10;;;15.50;94.90;;;;;;5123653;27;20050;-82
2022/09/03 06:20:59;;;;;;;2.78;1.13;;;15.50;94.60;;;;;;5092933;27;20043;-87
2022/09/03 06:23:26;;;;;;;4.13;1.30;;;15.50;94.50;;;;;;5126382;27;20063;-85
2022/09/03 06:26:03;;;;;;;2.38;1.27;;;15.60;94.60;;;;;;5106617;27;20082;-85
2022/09/03 06:28:31;;;;;;;3.13;1.50;;;15.60;94.40;;;;;;5128356;27;20046;-84
2022/09/03 06:30:58;;;;;;;4.55;1.50;;;15.60;95.00;;;;;;5116684;27;20047;-86
2022/09/03 06:33:24;;;;;;;3.80;1.48;;;15.60;94.80;;;;;;5125956;27;20119;-84
2022/09/03 06:35:58;;;;;;;2.75;1.50;;;15.60;95.00;;;;;;5095197;27;20038;-86
2022/09/03 06:38:30;;;;;;;4.90;1.13;;;15.60;95.10;;;;;;5087664;27;20484;-83
2022/09/03 06:41:02;;;;;;;2.83;1.20;;;15.60;95.10;;;;;;5099802;27;20551;-82
2022/09/03 06:43:29;;;;;;;3.53;1.50;;;15.70;95.40;;;;;;5101060;27;20092;-84
2022/09/03 06:45:57;;;;;;;4.22;1.38;;;15.70;95.20;;;;;;5082977;28;20058;-82
2022/09/03 06:48:24;;;;;;;2.38;1.48;;;15.80;95.10;;;;;;5087710;28;20067;-82
2022/09/03 06:51:00;;;;;;;4.28;1.10;;;15.80;95.00;;;;;;5049797;28;20059;-84
2022/09/03 06:53:32;;;;;;;3.42;1.60;;;15.90;95.00;;;;;;5069028;28;20150;-87
2022/09/03 06:56:01;;;;;;;5.78;1.63;;;16.00;95.00;;;;;;5084758;28;20035;-86
2022/09/03 06:58:36;;;;;;;3.40;1.33;;;16.10;94.50;;;;;;5066669;28;20036;-85
2022/09/03 07:01:24;;;;;;;5.10;1.40;;;16.20;94.40;;;;;;5078828;28;20076;-89
2022/09/03 07:03:55;;;;;;;3.17;1.10;;;16.20;93.80;;;;;;5065346;28;20048;-82
2022/09/03 07:06:28;;;;;;;3.83;1.27;;;16.30;94.00;;;;;;5079035;28;20125;-85
2022/09/03 07:08:56;;;;;;;4.53;1.17;;;16.40;93.60;;;;;;5075700;28;20040;-83
2022/09/03 07:11:25;;;;;;;3.00;1.50;;;16.40;93.40;;;;;;5093923;28;20050;-83
2022/09/03 07:13:53;;;;;;;4.80;1.15;;;16.50;93.30;;;;;;5098274;28;20047;-86
2022/09/03 07:16:24;;;;;;;2.67;1.35;;;16.60;93.10;;;;;;5086012;28;20410;-85
2022/09/03 07:18:51;;;;;;;2.10;1.05;;;16.70;92.70;;;;;;5075068;28;20498;-87
2022/09/03 07:21:19;;;;;;;5.43;1.25;;;16.80;92.50;;;;;;5076696;28;20458;-85
2022/09/03 07:23:46;;;;;;;4.13;1.52;;;17.00;92.60;;;;;;5084187;28;20505;-85
2022/09/03 07:26:22;;;;;;;4.93;1.30;;;17.10;92.50;;;;;;5077895;28;20119;-86
2022/09/03 07:28:48;;;;;;;4.05;1.30;;;17.30;92.00;;;;;;5085638;28;20822;-88
2022/09/03 07:31:19;;;;;;;4.10;1.30;;;17.30;91.40;;;;;;5085088;28;20040;-85
2022/09/03 07:33:47;;;;;;;2.72;1.23;;;17.50;91.10;;;;;;5063461;28;20538;-84
2022/09/03 07:36:15;;;;;;;2.13;1.00;;;17.60;90.40;;;;;;5052717;28;20032;-80
2022/09/03 07:38:45;;;;;;;2.70;1.00;;;17.70;90.10;;;;;;5071593;28;20035;-83
2022/09/03 07:41:13;;;;;;;5.68;1.30;;;17.80;90.00;;;;;;5064523;28;20114;-85
2022/09/03 07:43:48;;;;;;;7.28;1.63;;;18.10;89.30;;;;;;5078646;28;20517;-84
2022/09/03 07:46:20;;;;;;;3.50;1.10;;;18.00;87.20;;;;;;5102672;27;20047;-87
2022/09/03 07:48:47;;;;;;;2.30;0.90;;;18.20;87.20;;;;;;5103399;27;20041;-84
2022/09/03 07:51:14;;;;;;;2.60;1.13;;;18.30;87.10;;;;;;5105157;27;20049;-84
2022/09/03 07:53:39;;;;;;;3.80;1.20;;;18.50;85.80;;;;;;5115563;27;20048;-85
2022/09/03 07:56:09;;;;;;;3.22;1.00;;;18.60;85.80;;;;;;5102677;27;20047;-83
2022/09/03 07:58:36;;;;;;;2.73;1.13;;;18.80;85.00;;;;;;5109469;27;20030;-84
2022/09/03 08:01:10;;;;;;;2.50;1.10;;;19.00;83.90;;;;;;5102163;27;20304;-84
2022/09/03 08:03:37;;;;;;;3.45;1.35;;;19.10;82.60;;;;;;5101290;27;20159;-86
2022/09/03 08:06:06;;;;;;;3.88;1.20;;;19.30;81.50;;;;;;5094434;27;20414;-89
2022/09/03 08:08:33;;;;;;;2.90;1.00;;;19.40;80.10;;;;;;5104814;27;20038;-86
2022/09/03 08:11:09;;;;;;;3.03;1.23;;;19.60;79.50;;;;;;5083602;27;20054;-86
2022/09/03 08:13:44;;;;;;;3.75;1.20;;;19.60;78.00;;;;;;5099041;27;20516;-84
2022/09/03 08:16:17;;;;;;;3.35;1.45;;;19.70;76.90;;;;;;5104440;27;20133;-89
2022/09/03 08:18:44;;;;;;;3.90;1.17;;;19.70;76.30;;;;;;5116227;27;20412;-83
2022/09/03 08:21:14;;;;;;;2.42;1.20;;;19.90;77.00;;;;;;5091694;27;20042;-88
2022/09/03 08:23:45;;;;;;;2.70;1.08;;;20.00;77.10;;;;;;5108273;27;20065;-87
2022/09/03 08:26:12;;;;;;;3.83;1.27;;;20.20;76.00;;;;;;5101213;27;20055;-89
2022/09/03 08:28:39;;;;;;;2.35;1.00;;;20.30;75.10;;;;;;5104226;27;20050;-88
2022/09/03 08:31:14;;;;;;;3.83;1.08;;;20.50;75.30;;;;;;5096763;27;20042;-85
2022/09/03 08:33:42;;;;;;;3.30;1.10;;;20.60;74.30;;;;;;5103086;27;20038;-88
2022/09/03 08:36:15;;;;;;;4.03;1.10;;;20.70;73.70;;;;;;5100612;27;20113;-86
2022/09/03 08:38:44;;;;;;;2.53;1.15;;;20.80;72.90;;;;;;5111607;27;20547;-85
2022/09/03 08:41:28;;;;;;;2.47;1.10;;;20.90;72.30;;;;;;5101929;27;20050;-85
2022/09/03 08:44:12;;;;;;;3.58;1.00;;;21.00;71.00;;;;;;5106861;27;20039;-84
2022/09/03 08:47:07;;;;;;;2.20;1.05;;;21.10;70.50;;;;;;5094003;27;20512;-89
2022/09/03 08:49:45;;;;;;;4.70;1.23;;;21.20;70.10;;;;;;5100323;27;20047;-89
2022/09/03 08:52:37;;;;;;;2.53;0.95;;;21.20;69.00;;;;;;5116154;27;20039;-87
2022/09/03 08:55:30;;;;;;;3.75;0.98;;;21.20;68.10;;;;;;5104978;27;20513;-87
2022/09/03 08:58:12;;;;;;;1.65;0.80;;;21.30;69.10;;;;;;5095015;27;20489;-87
2022/09/03 09:01:01;;;;;;;3.38;1.10;;;21.40;68.60;;;;;;5097352;27;20054;-87
2022/09/03 09:03:54;;;;;;;3.10;1.23;;;21.50;67.60;;;;;;5084636;27;20051;-86
2022/09/03 09:06:23;;;;;;;3.42;1.13;;;21.60;68.30;;;;;;5105735;27;20034;-81
2022/09/03 09:09:11;;;;;;;3.83;1.05;;;21.80;67.40;;;;;;5092838;27;20385;-81
2022/09/03 09:12:15;;;;;;;2.35;0.82;;;21.80;67.00;;;;;;5111289;27;20475;-80
2022/09/03 09:14:59;;;;;;;4.60;1.40;;;21.90;68.20;;;;;;5096493;27;20485;-81
2022/09/03 09:18:04;;;;;;;2.08;0.90;;;22.10;66.10;;;;;;5117721;27;20122;-83
2022/09/03 09:20:53;;;;;;;4.63;1.13;;;22.10;66.80;;;;;;5102146;27;20039;-80
2022/09/03 09:23:53;;;;;;;4.93;1.20;;;22.30;65.20;;;;;;5101170;27;20134;-81
2022/09/03 09:26:21;;;;;;;4.45;1.30;;;22.50;65.20;;;;;;5096699;27;20047;-81
2022/09/03 09:29:11;;;;;;;4.70;1.23;;;22.60;64.40;;;;;;5103444;27;20054;-80
2022/09/03 09:31:39;;;;;;;3.72;1.10;;;22.60;63.10;;;;;;5092704;27;20031;-81
2022/09/03 09:34:07;;;;;;;3.47;1.00;;;22.70;63.80;;;;;;5103911;27;20090;-82
2022/09/03 09:36:54;;;;;;;3.63;1.17;;;22.70;63.40;;;;;;5100933;27;20039;-79
2022/09/03 09:39:21;;;;;;;4.72;1.10;;;22.80;62.50;;;;;;5102219;27;20053;-81
2022/09/03 09:41:57;;;;;;;6.30;1.15;;;22.80;62.20;;;;;;5111705;27;20042;-82
2022/09/03 09:44:25;;;;;;;4.05;0.90;;;22.80;62.90;;;;;;5111870;27;20471;-83
2022/09/03 09:47:05;;;;;;;4.30;1.00;;;23.00;62.20;;;;;;5095550;27;20482;-80
2022/09/03 09:49:50;;;;;;;2.08;1.00;;;23.10;61.60;;;;;;5121260;27;20047;-80
2022/09/03 09:52:16;;;;;;;6.10;1.05;;;23.30;60.00;;;;;;5096506;27;20035;-81
2022/09/03 09:54:47;;;;;;;3.08;1.20;;;23.30;59.30;;;;;;5082400;27;20130;-82
2022/09/03 09:57:17;;;;;;;4.65;0.90;;;23.30;60.00;;;;;;5102058;27;20082;-87
2022/09/03 09:59:44;;;;;;;1.42;0.85;;;23.40;59.60;;;;;;5105340;27;20358;-90
2022/09/03 10:02:27;;;;;;;3.50;1.05;;;23.60;60.20;;;;;;5117104;27;20043;-86
2022/09/03 10:05:18;;;;;;;3.60;1.00;;;23.80;59.90;;;;;;5124942;27;20043;-88
2022/09/03 10:07:54;;;;;;;2.58;0.90;;;23.90;57.60;;;;;;5095566;27;20047;-89
2022/09/03 10:10:21;;;;;;;2.88;0.90;;;23.90;58.50;;;;;;5117312;27;20668;-87
2022/09/03 10:13:08;;;;;;;4.22;1.00;;;24.10;58.70;;;;;;5105682;27;20626;-88
2022/09/03 10:15:58;;;;;;;3.13;0.90;;;24.20;55.80;;;;;;5103967;27;20050;-88
2022/09/03 10:18:50;;;;;;;5.10;1.02;;;24.30;56.80;;;;;;5111691;27;20035;-86
2022/09/03 10:21:42;;;;;;;2.25;0.90;;;24.40;55.30;;;;;;5122396;27;20528;-89
2022/09/03 10:24:33;;;;;;;2.25;0.85;;;24.40;56.40;;;;;;5114888;27;20386;-87
2022/09/03 10:27:00;;;;;;;4.75;1.00;;;24.70;55.40;;;;;;5107659;27;20043;-88
2022/09/03 10:29:28;;;;;;;3.85;1.17;;;24.80;54.50;;;;;;5099662;27;20065;-88
2022/09/03 10:32:11;;;;;;;2.70;0.80;;;24.90;54.30;;;;;;5097493;27;20035;-88
2022/09/03 10:34:58;;;;;;;3.45;0.95;;;24.90;53.50;;;;;;5122976;27;20535;-90
2022/09/03 10:38:11;;;;;;;2.50;0.90;;;25.00;52.90;;;;;;5103375;27;20073;-86
2022/09/03 10:40:43;;;;;;;3.63;0.80;;;25.00;53.20;;;;;;5039626;28;20571;-86
2022/09/03 10:43:43;;;;;;;1.88;0.82;;;25.10;53.10;;;;;;5094987;27;20405;-86
2022/09/03 10:46:14;;;;;;;2.72;0.70;;;25.30;52.40;;;;;;5095458;27;20035;-86
2022/09/03 10:49:12;;;;;;;5.65;0.98;;;25.30;52.80;;;;;;5115319;27;20055;-84
2022/09/03 10:51:46;;;;;;;4.03;0.80;;;25.50;52.60;;;;;;5115195;27;20054;-86
2022/09/03 10:55:03;;;;;;;2.55;1.00;;;25.60;50.90;;;;;;5103366;27;20049;-85
2022/09/03 10:57:48;;;;;;;2.88;0.90;;;25.60;50.20;;;;;;5093018;27;20050;-84
2022/09/03 11:00:17;;;;;;;2.67;0.90;;;25.70;50.10;;;;;;5101436;27;20035;-84
2022/09/03 11:02:58;;;;;;;2.88;0.80;;;25.70;49.10;;;;;;5101719;27;20386;-87
2022/09/03 11:05:38;;;;;;;5.20;1.10;;;25.70;49.30;;;;;;5105102;27;20096;-89
2022/09/03 11:08:15;;;;;;;2.83;0.80;;;25.70;49.60;;;;;;5108210;27;20485;-87
2022/09/03 11:10:45;;;;;;;3.40;0.90;;;25.80;48.30;;;;;;5118438;27;20397;-85
2022/09/03 11:13:19;;;;;;;4.18;0.93;;;25.70;48.60;;;;;;5113840;27;20039;-87
2022/09/03 11:16:11;;;;;;;3.35;0.82;;;25.80;49.10;;;;;;5106432;27;20438;-81
2022/09/03 11:19:19;;;;;;;5.07;0.90;;;25.80;49.10;;;;;;5106971;27;20035;-81
2022/09/03 11:21:47;;;;;;;4.78;0.90;;;26.00;48.00;;;;;;5124503;27;20085;-86
2022/09/03 11:24:31;;;;;;;1.98;0.80;;;26.00;46.80;;;;;;5109600;27;20266;-86
2022/09/03 11:27:09;;;;;;;3.30;0.90;;;25.90;47.10;;;;;;5095053;27;20046;-81
2022/09/03 11:29:55;;;;;;;1.95;0.80;;;25.90;47.10;;;;;;5099857;27;20487;-83
2022/09/03 11:32:27;;;;;;;3.08;0.70;;;25.90;46.80;;;;;;5082651;27;20043;-84
2022/09/03 11:34:54;;;;;;;5.07;0.90;;;25.90;46.60;;;;;;5101883;27;20425;-79
2022/09/03 11:37:29;;;;;;;4.10;0.90;;;25.90;46.30;;;;;;5100286;27;20107;-82
2022/09/03 11:40:17;;;;;;;4.90;0.95;;;25.90;46.70;;;;;;5115167;27;20039;-85
2022/09/03 11:42:44;;;;;;;3.70;0.90;;;26.00;47.90;;;;;;5099835;27;20051;-89
2022/09/03 11:45:20;;;;;;;3.28;1.00;;;26.10;47.00;;;;;;5105087;27;20039;-83
2022/09/03 11:47:46;;;;;;;1.85;0.80;;;26.20;46.60;;;;;;5099507;27;20392;-81
2022/09/03 11:50:27;;;;;;;2.78;1.08;;;26.20;47.00;;;;;;5081069;27;20047;-84
2022/09/03 11:53:29;;;;;;;2.90;0.80;;;26.30;46.60;;;;;;5100860;27;20125;-84
2022/09/03 11:56:17;;;;;;;2.30;0.90;;;26.40;47.10;;;;;;5106883;27;20129;-85
2022/09/03 11:58:43;;;;;;;2.80;1.20;;;26.60;45.90;;;;;;5100330;27;20062;-85
2022/09/03 12:01:16;;;;;;;3.10;1.02;;;26.60;44.70;;;;;;5112429;27;20118;-86
2022/09/03 12:04:06;;;;;;;2.58;0.85;;;26.50;45.10;;;;;;5099737;27;20043;-84
2022/09/03 12:07:10;;;;;;;1.75;0.82;;;26.40;45.60;;;;;;5112286;27;20054;-82
2022/09/03 12:10:34;;;;;;;1.85;0.80;;;26.70;45.00;;;;;;5076786;27;20051;-82
2022/09/03 12:13:08;;;;;;;2.88;1.00;;;26.70;44.40;;;;;;5006036;28;20061;-82
2022/09/03 12:15:54;;;;;;;1.98;0.93;;;26.60;44.60;;;;;;5009024;28;20406;-83
2022/09/03 12:18:29;;;;;;;3.22;0.98;;;26.60;45.30;;;;;;5086360;27;20385;-82
2022/09/03 12:20:57;;;;;;;5.65;1.08;;;26.60;44.60;;;;;;5101428;27;20254;-83
2022/09/03 12:23:27;;;;;;;2.22;1.00;;;26.70;44.60;;;;;;5096655;27;20046;-82
2022/09/03 12:25:53;;;;;;;;;;;26.70;44.60;;;;;;5101031;27;20042;-87
2022/09/03 12:28:25;;;;;;;2.33;0.85;;;26.70;43.90;;;;;;5094176;27;21624;-86
2022/09/03 12:30:52;;;;;;;2.85;1.13;;;26.60;44.20;;;;;;5089049;27;20047;-85
2022/09/03 12:33:22;;;;;;;2.72;1.15;;;26.60;44.20;;;;;;5100924;27;20166;-91
2022/09/03 12:36:00;;;;;;;2.80;0.85;;;26.70;44.90;;;;;;5102704;27;20378;-89
2022/09/03 12:38:31;;;;;;;5.57;1.08;;;26.80;44.70;;;;;;5110019;27;20513;-83
2022/09/03 12:40:57;;;;;;;2.03;0.90;;;26.80;44.00;;;;;;5102521;27;20510;-83
2022/09/03 12:43:28;;;;;;;3.75;0.80;;;26.90;44.20;;;;;;5100564;27;20050;-83
2022/09/03 12:45:54;;;;;;;7.45;1.00;;;26.90;44.20;;;;;;5116232;27;20111;-84
2022/09/03 12:48:20;;;;;;;3.28;0.82;;;27.00;43.30;;;;;;5114185;27;20472;-85
2022/09/03 12:50:59;;;;;;;0.90;0.70;;;26.90;43.30;;;;;;5098811;27;20070;-84
2022/09/03 12:53:28;;;;;;;2.17;0.80;;;26.80;44.30;;;;;;5099171;27;20465;-88
2022/09/03 12:55:58;;;;;;;3.28;1.02;;;26.80;44.10;;;;;;5120838;27;20440;-85
2022/09/03 12:58:25;;;;;;;3.90;1.27;;;26.90;44.50;;;;;;5106181;27;20057;-84
2022/09/03 13:01:08;;;;;;;2.75;0.82;;;27.00;43.80;;;;;;5094096;27;21031;-83
2022/09/03 13:03:56;;;;;;;2.42;0.90;;;27.00;43.60;;;;;;5104276;27;20039;-84
2022/09/03 13:06:29;;;;;;;1.92;1.05;;;27.00;43.90;;;;;;5114649;27;20585;-82
2022/09/03 13:09:07;;;;;;;4.60;0.70;;;27.00;43.70;;;;;;5103132;27;20512;-84
2022/09/03 13:11:38;;;;;;;4.50;0.98;;;27.00;43.80;;;;;;5119836;27;20054;-81
2022/09/03 13:14:08;;;;;;;1.92;0.80;;;27.00;43.90;;;;;;5092102;27;20046;-81
2022/09/03 13:16:43;;;;;;;1.92;0.80;;;27.00;43.50;;;;;;5103587;27;20074;-81
2022/09/03 13:19:12;;;;;;;8.52;1.10;;;27.00;43.30;;;;;;5112699;27;20454;-82
2022/09/03 13:21:53;;;;;;;4.00;0.70;;;26.90;42.90;;;;;;5102258;27;20672;-81
2022/09/03 13:24:38;;;;;;;3.13;0.90;;;27.00;44.20;;;;;;5102139;27;20365;-81
2022/09/03 13:27:36;;;;;;;1.98;1.15;;;27.00;43.50;;;;;;5098138;27;20053;-78